sensor_id;sensor_type;location;lat;lon;timestamp;pressure;altitude;pressure_sealevel;temperature;humidity
15487;BME280;7845;53.698;10.078;2023-02-17T00:01:59;101638.16;;;10.26;100.00
15487;BME280;7845;53.698;10.078;2023-02-17T00:04:28;101625.97;;;10.27;100.00
15487;BME280;7845;53.698;10.078;2023-02-17T00:06:54;101631.22;;;10.30;100.00
15487;BME280;7845;53.698;10.078;2023-02-17T00:09:20;101634.66;;;10.26;100.00
15487;BME280;7845;53.698;10.078;2023-02-17T00:11:45;101624.25;;;10.27;100.00
15487;BME280;7845;53.698;10.078;2023-02-17T00:14:12;101621.69;;;10.33;100.00
15487;BME280;7845;53.698;10.078;2023-02-17T00:16:38;101627.75;;;10.29;100.00
15487;BME280;7845;53.698;10.078;2023-02-17T00:19:05;101626.88;;;10.32;100.00
15487;BME280;7845;53.698;10.078;2023-02-17T00:21:59;101622.56;;;10.35;100.00
15487;BME280;7845;53.698;10.078;2023-02-17T00:24:27;101617.31;;;10.34;100.00
15487;BME280;7845;53.698;10.078;2023-02-17T00:26:53;101621.69;;;10.33;100.00
15487;BME280;7845;53.698;10.078;2023-02-17T00:29:19;101619.94;;;10.32;100.00
15487;BME280;7845;53.698;10.078;2023-02-17T00:31:44;101621.66;;;10.32;100.00
15487;BME280;7845;53.698;10.078;2023-02-17T00:34:11;101624.28;;;10.32;100.00
15487;BME280;7845;53.698;10.078;2023-02-17T00:36:37;101623.47;;;10.39;100.00
15487;BME280;7845;53.698;10.078;2023-02-17T00:39:04;101620.81;;;10.33;100.00
15487;BME280;7845;53.698;10.078;2023-02-17T00:41:29;101627.56;;;10.13;100.00
15487;BME280;7845;53.698;10.078;2023-02-17T00:43:55;101636.47;;;10.34;100.00
15487;BME280;7845;53.698;10.078;2023-02-17T00:46:20;101635.50;;;10.20;100.00
15487;BME280;7845;53.698;10.078;2023-02-17T00:48:47;101631.28;;;10.39;100.00
15487;BME280;7845;53.698;10.078;2023-02-17T00:51:13;101630.41;;;10.38;100.00
15487;BME280;7845;53.698;10.078;2023-02-17T00:53:39;101629.56;;;10.41;100.00
15487;BME280;7845;53.698;10.078;2023-02-17T00:56:06;101621.69;;;10.38;100.00
15487;BME280;7845;53.698;10.078;2023-02-17T00:58:32;101617.38;;;10.38;100.00
15487;BME280;7845;53.698;10.078;2023-02-17T01:00:58;101612.16;;;10.41;100.00
15487;BME280;7845;53.698;10.078;2023-02-17T01:03:25;101600.81;;;10.38;100.00
15487;BME280;7845;53.698;10.078;2023-02-17T01:05:51;101601.72;;;10.38;100.00
15487;BME280;7845;53.698;10.078;2023-02-17T01:08:19;101599.94;;;10.37;100.00
15487;BME280;7845;53.698;10.078;2023-02-17T01:10:46;101602.56;;;10.40;100.00
15487;BME280;7845;53.698;10.078;2023-02-17T01:13:13;101598.22;;;10.39;100.00
15487;BME280;7845;53.698;10.078;2023-02-17T01:15:49;101592.16;;;10.43;100.00
15487;BME280;7845;53.698;10.078;2023-02-17T01:18:16;101588.66;;;10.43;100.00
15487;BME280;7845;53.698;10.078;2023-02-17T01:20:42;101589.59;;;10.49;100.00
15487;BME280;7845;53.698;10.078;2023-02-17T01:23:09;101590.44;;;10.47;100.00
15487;BME280;7845;53.698;10.078;2023-02-17T01:25:36;101583.47;;;10.46;100.00
15487;BME280;7845;53.698;10.078;2023-02-17T01:28:02;101581.75;;;10.45;100.00
15487;BME280;7845;53.698;10.078;2023-02-17T01:30:27;101576.53;;;10.48;100.00
15487;BME280;7845;53.698;10.078;2023-02-17T01:32:52;101586.09;;;10.47;100.00
15487;BME280;7845;53.698;10.078;2023-02-17T01:35:18;101581.75;;;10.45;100.00
15487;BME280;7845;53.698;10.078;2023-02-17T01:37:43;101586.06;;;10.46;100.00
15487;BME280;7845;53.698;10.078;2023-02-17T01:40:11;101576.53;;;10.45;100.00
15487;BME280;7845;53.698;10.078;2023-02-17T01:42:37;101572.16;;;10.44;100.00
15487;BME280;7845;53.698;10.078;2023-02-17T01:47:53;101567.78;;;10.38;100.00
15487;BME280;7845;53.698;10.078;2023-02-17T01:50:25;101565.16;;;10.37;100.00
15487;BME280;7845;53.698;10.078;2023-02-17T01:52:53;101556.50;;;10.45;100.00
15487;BME280;7845;53.698;10.078;2023-02-17T01:55:21;101553.88;;;10.41;100.00
15487;BME280;7845;53.698;10.078;2023-02-17T01:57:48;101553.88;;;10.45;100.00
15487;BME280;7845;53.698;10.078;2023-02-17T02:00:15;101549.56;;;10.47;100.00
15487;BME280;7845;53.698;10.078;2023-02-17T02:02:45;101540.84;;;10.47;100.00
15487;BME280;7845;53.698;10.078;2023-02-17T02:05:11;101533.91;;;10.50;100.00
15487;BME280;7845;53.698;10.078;2023-02-17T02:07:39;101531.28;;;10.49;100.00
15487;BME280;7845;53.698;10.078;2023-02-17T02:10:06;101526.13;;;10.57;100.00
15487;BME280;7845;53.698;10.078;2023-02-17T02:12:34;101529.56;;;10.52;100.00
15487;BME280;7845;53.698;10.078;2023-02-17T02:15:06;101522.63;;;10.56;100.00
15487;BME280;7845;53.698;10.078;2023-02-17T02:17:46;101517.41;;;10.61;100.00
15487;BME280;7845;53.698;10.078;2023-02-17T02:23:07;101508.72;;;10.65;100.00
15487;BME280;7845;53.698;10.078;2023-02-17T02:26:01;101500.94;;;10.66;100.00
15487;BME280;7845;53.698;10.078;2023-02-17T02:34:36;101488.75;;;10.71;100.00
15487;BME280;7845;53.698;10.078;2023-02-17T02:37:06;101490.47;;;10.72;100.00
15487;BME280;7845;53.698;10.078;2023-02-17T02:39:38;101489.63;;;10.73;100.00
15487;BME280;7845;53.698;10.078;2023-02-17T02:42:08;101486.13;;;10.76;100.00
15487;BME280;7845;53.698;10.078;2023-02-17T02:44:35;101490.47;;;10.75;100.00
15487;BME280;7845;53.698;10.078;2023-02-17T02:47:03;101498.31;;;10.75;100.00
15487;BME280;7845;53.698;10.078;2023-02-17T02:49:31;101488.75;;;10.76;100.00
15487;BME280;7845;53.698;10.078;2023-02-17T02:52:22;101478.31;;;10.79;100.00
15487;BME280;7845;53.698;10.078;2023-02-17T02:55:08;101469.59;;;10.77;100.00
15487;BME280;7845;53.698;10.078;2023-02-17T02:57:51;101467.84;;;10.76;100.00
15487;BME280;7845;53.698;10.078;2023-02-17T03:00:25;101470.50;;;10.80;100.00
15487;BME280;7845;53.698;10.078;2023-02-17T03:05:54;101465.25;;;10.82;100.00
15487;BME280;7845;53.698;10.078;2023-02-17T03:08:32;101472.22;;;10.84;100.00
15487;BME280;7845;53.698;10.078;2023-02-17T03:11:01;101461.78;;;10.83;100.00
15487;BME280;7845;53.698;10.078;2023-02-17T03:13:27;101461.81;;;10.86;100.00
15487;BME280;7845;53.698;10.078;2023-02-17T03:15:52;101454.81;;;10.85;100.00
15487;BME280;7845;53.698;10.078;2023-02-17T03:18:18;101451.34;;;10.89;100.00
15487;BME280;7845;53.698;10.078;2023-02-17T03:20:53;101440.06;;;10.90;100.00
15487;BME280;7845;53.698;10.078;2023-02-17T03:23:20;101448.75;;;10.92;100.00
15487;BME280;7845;53.698;10.078;2023-02-17T03:25:46;101443.50;;;10.93;100.00
15487;BME280;7845;53.698;10.078;2023-02-17T03:28:12;101439.19;;;10.92;100.00
15487;BME280;7845;53.698;10.078;2023-02-17T03:30:38;101438.28;;;10.93;100.00
15487;BME280;7845;53.698;10.078;2023-02-17T03:33:04;101428.72;;;10.91;100.00
15487;BME280;7845;53.698;10.078;2023-02-17T03:35:29;101429.59;;;10.91;100.00
15487;BME280;7845;53.698;10.078;2023-02-17T03:37:54;101433.97;;;10.92;100.00
15487;BME280;7845;53.698;10.078;2023-02-17T03:40:22;101435.69;;;10.99;100.00
15487;BME280;7845;53.698;10.078;2023-02-17T03:42:47;101423.53;;;10.98;100.00
15487;BME280;7845;53.698;10.078;2023-02-17T03:45:13;101433.97;;;10.98;100.00
15487;BME280;7845;53.698;10.078;2023-02-17T03:47:38;101425.25;;;10.96;100.00
15487;BME280;7845;53.698;10.078;2023-02-17T03:50:04;101420.00;;;10.96;100.00
15487;BME280;7845;53.698;10.078;2023-02-17T03:52:30;101421.78;;;10.96;100.00
15487;BME280;7845;53.698;10.078;2023-02-17T03:54:55;101421.75;;;10.97;100.00
15487;BME280;7845;53.698;10.078;2023-02-17T03:57:20;101422.66;;;10.98;100.00
15487;BME280;7845;53.698;10.078;2023-02-17T03:59:46;101416.53;;;11.00;100.00
15487;BME280;7845;53.698;10.078;2023-02-17T04:02:11;101423.53;;;11.01;100.00
15487;BME280;7845;53.698;10.078;2023-02-17T04:04:36;101411.31;;;11.00;100.00
15487;BME280;7845;53.698;10.078;2023-02-17T04:07:03;101418.28;;;11.00;100.00
15487;BME280;7845;53.698;10.078;2023-02-17T04:09:28;101403.50;;;11.06;100.00
15487;BME280;7845;53.698;10.078;2023-02-17T04:11:54;101413.94;;;10.87;100.00
15487;BME280;7845;53.698;10.078;2023-02-17T04:14:19;101426.09;;;10.80;100.00
15487;BME280;7845;53.698;10.078;2023-02-17T04:16:44;101427.84;;;10.83;100.00
15487;BME280;7845;53.698;10.078;2023-02-17T04:19:10;101426.97;;;10.85;100.00
15487;BME280;7845;53.698;10.078;2023-02-17T04:21:35;101423.47;;;10.85;100.00
15487;BME280;7845;53.698;10.078;2023-02-17T04:24:01;101433.06;;;10.86;100.00
15487;BME280;7845;53.698;10.078;2023-02-17T04:29:03;101429.59;;;10.87;100.00
15487;BME280;7845;53.698;10.078;2023-02-17T04:31:28;101434.84;;;10.90;100.00
15487;BME280;7845;53.698;10.078;2023-02-17T04:33:54;101424.38;;;10.91;100.00
15487;BME280;7845;53.698;10.078;2023-02-17T04:36:19;101427.84;;;10.90;100.00
15487;BME280;7845;53.698;10.078;2023-02-17T04:38:44;101431.31;;;10.91;100.00
15487;BME280;7845;53.698;10.078;2023-02-17T04:41:10;101427.84;;;10.93;100.00
15487;BME280;7845;53.698;10.078;2023-02-17T04:43:35;101439.16;;;10.94;100.00
15487;BME280;7845;53.698;10.078;2023-02-17T04:46:00;101427.84;;;10.92;100.00
15487;BME280;7845;53.698;10.078;2023-02-17T04:48:26;101433.97;;;10.95;100.00
15487;BME280;7845;53.698;10.078;2023-02-17T04:50:51;101429.59;;;10.97;100.00
15487;BME280;7845;53.698;10.078;2023-02-17T04:53:17;101433.06;;;10.99;100.00
15487;BME280;7845;53.698;10.078;2023-02-17T04:55:42;101425.25;;;10.99;100.00
15487;BME280;7845;53.698;10.078;2023-02-17T04:58:08;101419.16;;;10.97;100.00
15487;BME280;7845;53.698;10.078;2023-02-17T05:00:34;101409.56;;;10.99;100.00
15487;BME280;7845;53.698;10.078;2023-02-17T05:02:59;101405.22;;;10.97;100.00
15487;BME280;7845;53.698;10.078;2023-02-17T05:05:25;101404.34;;;10.95;100.00
15487;BME280;7845;53.698;10.078;2023-02-17T05:07:50;101400.88;;;10.93;100.00
15487;BME280;7845;53.698;10.078;2023-02-17T05:10:16;101400.00;;;10.92;100.00
15487;BME280;7845;53.698;10.078;2023-02-17T05:12:42;101386.94;;;10.95;100.00
15487;BME280;7845;53.698;10.078;2023-02-17T05:15:09;101379.13;;;10.98;100.00
15487;BME280;7845;53.698;10.078;2023-02-17T05:17:35;101366.91;;;10.97;100.00
15487;BME280;7845;53.698;10.078;2023-02-17T05:20:01;101375.63;;;10.98;100.00
15487;BME280;7845;53.698;10.078;2023-02-17T05:22:27;101359.06;;;10.94;100.00
15487;BME280;7845;53.698;10.078;2023-02-17T05:24:55;101358.19;;;10.97;100.00
15487;BME280;7845;53.698;10.078;2023-02-17T05:27:20;101359.06;;;11.06;100.00
15487;BME280;7845;53.698;10.078;2023-02-17T05:29:45;101356.47;;;11.19;100.00
15487;BME280;7845;53.698;10.078;2023-02-17T05:32:11;101354.72;;;11.19;100.00
15487;BME280;7845;53.698;10.078;2023-02-17T05:34:37;101345.13;;;11.18;100.00
15487;BME280;7845;53.698;10.078;2023-02-17T05:37:02;101348.59;;;11.23;100.00
15487;BME280;7845;53.698;10.078;2023-02-17T05:39:28;101338.16;;;11.23;100.00
15487;BME280;7845;53.698;10.078;2023-02-17T05:41:53;101329.47;;;11.23;100.00
15487;BME280;7845;53.698;10.078;2023-02-17T05:44:19;101321.59;;;11.30;100.00
15487;BME280;7845;53.698;10.078;2023-02-17T05:46:44;101317.25;;;11.28;100.00
15487;BME280;7845;53.698;10.078;2023-02-17T05:49:10;101304.16;;;11.32;100.00
15487;BME280;7845;53.698;10.078;2023-02-17T05:51:36;101305.94;;;11.32;100.00
15487;BME280;7845;53.698;10.078;2023-02-17T05:54:03;101312.00;;;11.32;100.00
15487;BME280;7845;53.698;10.078;2023-02-17T05:56:30;101310.28;;;11.25;100.00
15487;BME280;7845;53.698;10.078;2023-02-17T05:58:55;101306.78;;;11.31;100.00
15487;BME280;7845;53.698;10.078;2023-02-17T06:01:21;101304.16;;;11.32;100.00
15487;BME280;7845;53.698;10.078;2023-02-17T06:03:46;101300.69;;;11.33;100.00
15487;BME280;7845;53.698;10.078;2023-02-17T06:06:11;101296.31;;;11.35;100.00
15487;BME280;7845;53.698;10.078;2023-02-17T06:08:37;101298.94;;;11.35;100.00
15487;BME280;7845;53.698;10.078;2023-02-17T06:11:02;101293.72;;;11.34;100.00
15487;BME280;7845;53.698;10.078;2023-02-17T06:13:28;101284.16;;;11.28;100.00
15487;BME280;7845;53.698;10.078;2023-02-17T06:15:53;101289.34;;;11.33;100.00
15487;BME280;7845;53.698;10.078;2023-02-17T06:18:19;101278.91;;;11.33;100.00
15487;BME280;7845;53.698;10.078;2023-02-17T06:20:44;101278.03;;;11.32;100.00
15487;BME280;7845;53.698;10.078;2023-02-17T06:23:09;101267.59;;;11.34;100.00
15487;BME280;7845;53.698;10.078;2023-02-17T06:25:35;101260.59;;;11.33;100.00
15487;BME280;7845;53.698;10.078;2023-02-17T06:28:01;101253.63;;;11.33;100.00
15487;BME280;7845;53.698;10.078;2023-02-17T06:30:26;101242.31;;;11.30;100.00
15487;BME280;7845;53.698;10.078;2023-02-17T06:32:52;101244.91;;;11.36;100.00
15487;BME280;7845;53.698;10.078;2023-02-17T06:35:17;101236.22;;;11.34;100.00
15487;BME280;7845;53.698;10.078;2023-02-17T06:37:42;101215.31;;;11.31;100.00
15487;BME280;7845;53.698;10.078;2023-02-17T06:40:09;101216.16;;;11.36;100.00
15487;BME280;7845;53.698;10.078;2023-02-17T06:42:35;101212.69;;;11.32;100.00
15487;BME280;7845;53.698;10.078;2023-02-17T06:45:02;101213.59;;;11.27;100.00
15487;BME280;7845;53.698;10.078;2023-02-17T06:47:30;101217.13;;;11.20;100.00
15487;BME280;7845;53.698;10.078;2023-02-17T06:49:55;101221.44;;;11.21;100.00
15487;BME280;7845;53.698;10.078;2023-02-17T06:52:21;101225.78;;;11.26;100.00
15487;BME280;7845;53.698;10.078;2023-02-17T06:54:46;101215.31;;;11.29;100.00
15487;BME280;7845;53.698;10.078;2023-02-17T06:57:11;101217.06;;;11.27;100.00
15487;BME280;7845;53.698;10.078;2023-02-17T06:59:37;101205.75;;;11.28;100.00
15487;BME280;7845;53.698;10.078;2023-02-17T07:02:05;101199.66;;;11.26;100.00
15487;BME280;7845;53.698;10.078;2023-02-17T07:04:31;101197.03;;;11.31;100.00
15487;BME280;7845;53.698;10.078;2023-02-17T07:06:56;101197.91;;;11.27;100.00
15487;BME280;7845;53.698;10.078;2023-02-17T07:09:21;101197.00;;;11.32;100.00
15487;BME280;7845;53.698;10.078;2023-02-17T07:11:47;101200.50;;;11.33;100.00
15487;BME280;7845;53.698;10.078;2023-02-17T07:14:15;101201.41;;;11.32;100.00
15487;BME280;7845;53.698;10.078;2023-02-17T07:16:40;101184.84;;;11.30;100.00
15487;BME280;7845;53.698;10.078;2023-02-17T07:19:06;101192.66;;;11.30;100.00
15487;BME280;7845;53.698;10.078;2023-02-17T07:21:31;101182.19;;;11.39;100.00
15487;BME280;7845;53.698;10.078;2023-02-17T07:23:56;101176.09;;;11.37;100.00
15487;BME280;7845;53.698;10.078;2023-02-17T07:26:21;101170.81;;;11.44;100.00
15487;BME280;7845;53.698;10.078;2023-02-17T07:28:47;101175.22;;;11.44;100.00
15487;BME280;7845;53.698;10.078;2023-02-17T07:31:14;101167.34;;;11.45;100.00
15487;BME280;7845;53.698;10.078;2023-02-17T07:33:41;101170.81;;;11.47;100.00
15487;BME280;7845;53.698;10.078;2023-02-17T07:36:08;101153.44;;;11.39;100.00
15487;BME280;7845;53.698;10.078;2023-02-17T07:38:34;101158.66;;;11.43;100.00
15487;BME280;7845;53.698;10.078;2023-02-17T07:41:05;101158.66;;;11.43;100.00
15487;BME280;7845;53.698;10.078;2023-02-17T07:43:31;101152.53;;;11.41;100.00
15487;BME280;7845;53.698;10.078;2023-02-17T07:45:56;101151.63;;;11.47;100.00
15487;BME280;7845;53.698;10.078;2023-02-17T07:48:21;101144.69;;;11.41;100.00
15487;BME280;7845;53.698;10.078;2023-02-17T07:50:46;101143.84;;;11.44;100.00
15487;BME280;7845;53.698;10.078;2023-02-17T07:53:12;101139.47;;;11.44;100.00
15487;BME280;7845;53.698;10.078;2023-02-17T07:55:37;101132.50;;;11.46;100.00
15487;BME280;7845;53.698;10.078;2023-02-17T07:58:02;101135.09;;;11.46;100.00
15487;BME280;7845;53.698;10.078;2023-02-17T08:00:28;101128.97;;;11.47;100.00
15487;BME280;7845;53.698;10.078;2023-02-17T08:02:53;101115.88;;;11.53;100.00
15487;BME280;7845;53.698;10.078;2023-02-17T08:05:18;101123.75;;;11.49;100.00
15487;BME280;7845;53.698;10.078;2023-02-17T08:07:43;101113.25;;;11.53;100.00
15487;BME280;7845;53.698;10.078;2023-02-17T08:10:11;101107.19;;;11.51;100.00
15487;BME280;7845;53.698;10.078;2023-02-17T08:12:55;101108.00;;;11.61;100.00
15487;BME280;7845;53.698;10.078;2023-02-17T08:15:38;101081.03;;;11.54;100.00
15487;BME280;7845;53.698;10.078;2023-02-17T08:18:05;101084.53;;;11.50;100.00
15487;BME280;7845;53.698;10.078;2023-02-17T08:20:30;101087.09;;;11.58;100.00
15487;BME280;7845;53.698;10.078;2023-02-17T08:22:56;101077.47;;;11.64;100.00
15487;BME280;7845;53.698;10.078;2023-02-17T08:25:21;101080.13;;;11.57;100.00
15487;BME280;7845;53.698;10.078;2023-02-17T08:27:46;101072.28;;;11.61;100.00
15487;BME280;7845;53.698;10.078;2023-02-17T08:30:12;101065.22;;;11.68;100.00
15487;BME280;7845;53.698;10.078;2023-02-17T08:32:37;101068.75;;;11.67;100.00
15487;BME280;7845;53.698;10.078;2023-02-17T08:35:05;101045.19;;;11.65;100.00
15487;BME280;7845;53.698;10.078;2023-02-17T08:37:31;101053.06;;;11.67;100.00
15487;BME280;7845;53.698;10.078;2023-02-17T08:39:56;101054.75;;;11.68;100.00
15487;BME280;7845;53.698;10.078;2023-02-17T08:42:25;101050.44;;;11.70;100.00
15487;BME280;7845;53.698;10.078;2023-02-17T08:44:51;101040.00;;;11.70;100.00
15487;BME280;7845;53.698;10.078;2023-02-17T08:47:16;101020.81;;;11.70;100.00
15487;BME280;7845;53.698;10.078;2023-02-17T08:49:43;101028.56;;;11.79;100.00
15487;BME280;7845;53.698;10.078;2023-02-17T08:52:08;101033.81;;;11.77;100.00
15487;BME280;7845;53.698;10.078;2023-02-17T08:54:34;101046.03;;;11.75;100.00
15487;BME280;7845;53.698;10.078;2023-02-17T08:56:59;101048.69;;;11.74;100.00
15487;BME280;7845;53.698;10.078;2023-02-17T08:59:24;101051.28;;;11.72;100.00
15487;BME280;7845;53.698;10.078;2023-02-17T09:01:50;101049.53;;;11.74;100.00
15487;BME280;7845;53.698;10.078;2023-02-17T09:04:15;101040.84;;;11.68;100.00
15487;BME280;7845;53.698;10.078;2023-02-17T09:06:44;101033.91;;;11.60;100.00
15487;BME280;7845;53.698;10.078;2023-02-17T09:09:11;101034.78;;;11.64;100.00
15487;BME280;7845;53.698;10.078;2023-02-17T09:11:39;101040.00;;;11.64;100.00
15487;BME280;7845;53.698;10.078;2023-02-17T09:14:05;101035.63;;;11.63;100.00
15487;BME280;7845;53.698;10.078;2023-02-17T09:16:31;101026.06;;;11.62;100.00
15487;BME280;7845;53.698;10.078;2023-02-17T09:18:57;101014.75;;;11.61;100.00
15487;BME280;7845;53.698;10.078;2023-02-17T09:21:22;101032.97;;;11.69;100.00
15487;BME280;7845;53.698;10.078;2023-02-17T09:23:51;101026.00;;;11.73;100.00
15487;BME280;7845;53.698;10.078;2023-02-17T09:26:18;101026.16;;;11.51;100.00
15487;BME280;7845;53.698;10.078;2023-02-17T09:28:45;101038.34;;;11.51;100.00
15487;BME280;7845;53.698;10.078;2023-02-17T09:31:20;101023.41;;;11.65;100.00
15487;BME280;7845;53.698;10.078;2023-02-17T09:33:46;101009.44;;;11.69;100.00
15487;BME280;7845;53.698;10.078;2023-02-17T09:36:15;101013.84;;;11.70;100.00
15487;BME280;7845;53.698;10.078;2023-02-17T09:38:41;100989.41;;;11.68;100.00
15487;BME280;7845;53.698;10.078;2023-02-17T09:41:16;101004.22;;;11.74;100.00
15487;BME280;7845;53.698;10.078;2023-02-17T09:43:42;100998.13;;;11.72;100.00
15487;BME280;7845;53.698;10.078;2023-02-17T09:46:36;101001.69;;;11.57;100.00
15487;BME280;7845;53.698;10.078;2023-02-17T09:49:15;100995.63;;;11.53;100.00
15487;BME280;7845;53.698;10.078;2023-02-17T09:54:18;100998.16;;;11.70;100.00
15487;BME280;7845;53.698;10.078;2023-02-17T09:56:49;101004.16;;;11.78;100.00
15487;BME280;7845;53.698;10.078;2023-02-17T09:59:20;101008.53;;;11.79;100.00
15487;BME280;7845;53.698;10.078;2023-02-17T10:01:49;101019.84;;;11.81;100.00
15487;BME280;7845;53.698;10.078;2023-02-17T10:04:20;101018.88;;;11.90;100.00
15487;BME280;7845;53.698;10.078;2023-02-17T10:06:53;101006.66;;;11.89;100.00
15487;BME280;7845;53.698;10.078;2023-02-17T10:09:33;101012.84;;;11.83;100.00
15487;BME280;7845;53.698;10.078;2023-02-17T10:12:05;101002.38;;;11.85;100.00
15487;BME280;7845;53.698;10.078;2023-02-17T10:14:40;100996.25;;;11.86;100.00
15487;BME280;7845;53.698;10.078;2023-02-17T10:19:59;101010.22;;;11.85;100.00
15487;BME280;7845;53.698;10.078;2023-02-17T10:22:27;101017.13;;;11.89;100.00
15487;BME280;7845;53.698;10.078;2023-02-17T10:24:56;101021.50;;;11.90;100.00
15487;BME280;7845;53.698;10.078;2023-02-17T10:27:40;101030.28;;;11.84;100.00
15487;BME280;7845;53.698;10.078;2023-02-17T10:38:50;101022.38;;;11.89;100.00
15487;BME280;7845;53.698;10.078;2023-02-17T10:41:20;101009.25;;;11.92;100.00
15487;BME280;7845;53.698;10.078;2023-02-17T10:43:48;100997.94;;;11.94;100.00
15487;BME280;7845;53.698;10.078;2023-02-17T10:46:16;100994.34;;;12.03;100.00
15487;BME280;7845;53.698;10.078;2023-02-17T10:48:48;100989.09;;;12.06;100.00
15487;BME280;7845;53.698;10.078;2023-02-17T10:51:20;100996.03;;;12.08;100.00
15487;BME280;7845;53.698;10.078;2023-02-17T10:53:50;100984.66;;;12.11;100.00
15487;BME280;7845;53.698;10.078;2023-02-17T10:56:37;100976.88;;;12.06;100.00
15487;BME280;7845;53.698;10.078;2023-02-17T10:59:14;100983.75;;;12.15;100.00
15487;BME280;7845;53.698;10.078;2023-02-17T11:01:41;100974.97;;;12.19;100.00
15487;BME280;7845;53.698;10.078;2023-02-17T11:04:10;100967.19;;;12.14;100.00
15487;BME280;7845;53.698;10.078;2023-02-17T11:06:40;100981.06;;;12.21;100.00
15487;BME280;7845;53.698;10.078;2023-02-17T11:09:17;100982.84;;;12.17;100.00
15487;BME280;7845;53.698;10.078;2023-02-17T11:12:10;100981.09;;;12.18;100.00
15487;BME280;7845;53.698;10.078;2023-02-17T11:14:36;100981.97;;;12.17;100.00
15487;BME280;7845;53.698;10.078;2023-02-17T11:17:10;100981.09;;;12.18;100.00
15487;BME280;7845;53.698;10.078;2023-02-17T11:19:38;100983.66;;;12.23;100.00
15487;BME280;7845;53.698;10.078;2023-02-17T11:22:28;100977.56;;;12.22;100.00
15487;BME280;7845;53.698;10.078;2023-02-17T11:24:58;100971.44;;;12.23;100.00
15487;BME280;7845;53.698;10.078;2023-02-17T11:27:24;100965.38;;;12.19;100.00
15487;BME280;7845;53.698;10.078;2023-02-17T11:29:51;100947.06;;;12.19;100.00
15487;BME280;7845;53.698;10.078;2023-02-17T11:32:17;100968.00;;;12.19;100.00
15487;BME280;7845;53.698;10.078;2023-02-17T11:34:55;100951.38;;;12.24;100.00
15487;BME280;7845;53.698;10.078;2023-02-17T11:37:22;100965.28;;;12.29;100.00
15487;BME280;7845;53.698;10.078;2023-02-17T11:39:50;100962.66;;;12.30;100.00
15487;BME280;7845;53.698;10.078;2023-02-17T11:42:21;100960.03;;;12.29;100.00
15487;BME280;7845;53.698;10.078;2023-02-17T11:44:47;100961.81;;;12.25;100.00
15487;BME280;7845;53.698;10.078;2023-02-17T11:50:02;100959.13;;;12.33;100.00
15487;BME280;7845;53.698;10.078;2023-02-17T11:55:28;100956.31;;;12.46;100.00
15487;BME280;7845;53.698;10.078;2023-02-17T12:04:16;100953.69;;;12.48;100.00
15487;BME280;7845;53.698;10.078;2023-02-17T12:07:25;100955.38;;;12.52;100.00
15487;BME280;7845;53.698;10.078;2023-02-17T12:10:27;100950.09;;;12.56;100.00
15487;BME280;7845;53.698;10.078;2023-02-17T12:13:14;100940.38;;;12.64;100.00
15487;BME280;7845;53.698;10.078;2023-02-17T12:24:14;100938.59;;;12.66;100.00
15487;BME280;7845;53.698;10.078;2023-02-17T12:27:17;100942.09;;;12.67;100.00
15487;BME280;7845;53.698;10.078;2023-02-17T12:33:01;100929.91;;;12.66;100.00
15487;BME280;7845;53.698;10.078;2023-02-17T12:38:14;100932.53;;;12.66;100.00
15487;BME280;7845;53.698;10.078;2023-02-17T12:40:52;100954.44;;;12.57;100.00
15487;BME280;7845;53.698;10.078;2023-02-17T12:43:31;100948.34;;;12.57;100.00
15487;BME280;7845;53.698;10.078;2023-02-17T12:46:02;100952.59;;;12.64;100.00
15487;BME280;7845;53.698;10.078;2023-02-17T12:48:38;100965.00;;;12.51;100.00
15487;BME280;7845;53.698;10.078;2023-02-17T12:54:25;100952.63;;;12.61;100.00
15487;BME280;7845;53.698;10.078;2023-02-17T12:57:13;100961.28;;;12.67;100.00
15487;BME280;7845;53.698;10.078;2023-02-17T12:59:43;100952.53;;;12.70;100.00
15487;BME280;7845;53.698;10.078;2023-02-17T13:04:38;100955.09;;;12.74;100.00
15487;BME280;7845;53.698;10.078;2023-02-17T13:07:18;100958.63;;;12.70;100.00
15487;BME280;7845;53.698;10.078;2023-02-17T13:09:48;100957.72;;;12.73;100.00
15487;BME280;7845;53.698;10.078;2023-02-17T13:14:54;100963.03;;;12.67;100.00
15487;BME280;7845;53.698;10.078;2023-02-17T13:17:38;100962.09;;;12.72;100.00
15487;BME280;7845;53.698;10.078;2023-02-17T13:22:39;100964.81;;;12.65;100.00
15487;BME280;7845;53.698;10.078;2023-02-17T13:25:06;100956.09;;;12.64;100.00
15487;BME280;7845;53.698;10.078;2023-02-17T13:27:37;100970.09;;;12.62;100.00
15487;BME280;7845;53.698;10.078;2023-02-17T13:32:43;100974.41;;;12.64;100.00
15487;BME280;7845;53.698;10.078;2023-02-17T13:37:50;100975.19;;;12.72;100.00
15487;BME280;7845;53.698;10.078;2023-02-17T13:42:49;100970.72;;;12.79;100.00
15487;BME280;7845;53.698;10.078;2023-02-17T13:50:49;100954.22;;;12.74;100.00
15487;BME280;7845;53.698;10.078;2023-02-17T13:53:36;100948.84;;;12.83;100.00
15487;BME280;7845;53.698;10.078;2023-02-17T13:56:07;100956.72;;;12.83;100.00
15487;BME280;7845;53.698;10.078;2023-02-17T13:58:35;100973.38;;;12.76;100.00
15487;BME280;7845;53.698;10.078;2023-02-17T14:01:02;100969.91;;;12.77;100.00
15487;BME280;7845;53.698;10.078;2023-02-17T14:03:49;100976.09;;;12.71;100.00
15487;BME280;7845;53.698;10.078;2023-02-17T14:06:25;100956.00;;;12.72;100.00
15487;BME280;7845;53.698;10.078;2023-02-17T14:08:52;100983.81;;;12.79;100.00
15487;BME280;7845;53.698;10.078;2023-02-17T14:11:25;100983.06;;;12.71;100.00